sensor_id;sensor_type;location;lat;lon;timestamp;pressure;altitude;pressure_sealevel;temperature;humidity
14120;BME280;7138;49.246;9.100;2023-06-01T00:02:10;98867.81;;;19.68;62.90
14120;BME280;7138;49.246;9.100;2023-06-01T00:04:39;98862.00;;;19.59;62.83
14120;BME280;7138;49.246;9.100;2023-06-01T00:07:06;98874.09;;;19.63;63.00
14120;BME280;7138;49.246;9.100;2023-06-01T00:09:32;98865.41;;;19.61;62.87
14120;BME280;7138;49.246;9.100;2023-06-01T00:11:58;98866.44;;;19.57;63.25
14120;BME280;7138;49.246;9.100;2023-06-01T00:14:24;98872.69;;;19.53;63.17
14120;BME280;7138;49.246;9.100;2023-06-01T00:16:50;98868.56;;;19.46;63.26
14120;BME280;7138;49.246;9.100;2023-06-01T00:19:17;98870.38;;;19.44;63.07
14120;BME280;7138;49.246;9.100;2023-06-01T00:21:44;98871.34;;;19.42;63.11
14120;BME280;7138;49.246;9.100;2023-06-01T00:24:10;98864.44;;;19.39;63.48
14120;BME280;7138;49.246;9.100;2023-06-01T00:26:36;98868.91;;;19.36;63.63
14120;BME280;7138;49.246;9.100;2023-06-01T00:29:02;98869.91;;;19.32;63.84
14120;BME280;7138;49.246;9.100;2023-06-01T00:31:27;98863.00;;;19.29;63.73
14120;BME280;7138;49.246;9.100;2023-06-01T00:33:53;98865.75;;;19.25;64.00
14120;BME280;7138;49.246;9.100;2023-06-01T00:36:20;98863.13;;;19.25;64.16
14120;BME280;7138;49.246;9.100;2023-06-01T00:38:47;98851.88;;;19.21;64.03
14120;BME280;7138;49.246;9.100;2023-06-01T00:41:13;98858.94;;;19.19;64.30
14120;BME280;7138;49.246;9.100;2023-06-01T00:43:39;98854.59;;;19.18;64.61
14120;BME280;7138;49.246;9.100;2023-06-01T00:46:05;98859.09;;;19.15;64.53
14120;BME280;7138;49.246;9.100;2023-06-01T00:48:31;98858.34;;;19.11;64.40
14120;BME280;7138;49.246;9.100;2023-06-01T00:50:57;98857.59;;;19.07;64.66
14120;BME280;7138;49.246;9.100;2023-06-01T00:53:25;98850.69;;;19.05;64.60
14120;BME280;7138;49.246;9.100;2023-06-01T00:55:52;98849.03;;;19.02;64.48
14120;BME280;7138;49.246;9.100;2023-06-01T00:58:18;98843.13;;;18.96;64.91
14120;BME280;7138;49.246;9.100;2023-06-01T01:00:44;98845.78;;;18.94;64.88
14120;BME280;7138;49.246;9.100;2023-06-01T01:03:14;98848.56;;;18.90;64.84
14120;BME280;7138;49.246;9.100;2023-06-01T01:05:41;98828.84;;;18.78;65.22
14120;BME280;7138;49.246;9.100;2023-06-01T01:08:13;98844.38;;;18.84;65.45
14120;BME280;7138;49.246;9.100;2023-06-01T01:10:50;98844.50;;;18.80;65.13
14120;BME280;7138;49.246;9.100;2023-06-01T01:13:27;98841.97;;;18.77;65.44
14120;BME280;7138;49.246;9.100;2023-06-01T01:16:01;98844.69;;;18.74;65.64
14120;BME280;7138;49.246;9.100;2023-06-01T01:18:35;98838.66;;;18.72;65.48
14120;BME280;7138;49.246;9.100;2023-06-01T01:21:04;98850.03;;;18.71;65.74
14120;BME280;7138;49.246;9.100;2023-06-01T01:24:23;98848.34;;;18.68;65.91
14120;BME280;7138;49.246;9.100;2023-06-01T01:27:14;98842.44;;;18.62;65.91
14120;BME280;7138;49.246;9.100;2023-06-01T01:29:43;98841.66;;;18.60;66.15
14120;BME280;7138;49.246;9.100;2023-06-01T01:32:12;98845.22;;;18.57;65.73
14120;BME280;7138;49.246;9.100;2023-06-01T01:34:43;98850.50;;;18.55;65.87
14120;BME280;7138;49.246;9.100;2023-06-01T01:37:10;98845.44;;;18.49;65.93
14120;BME280;7138;49.246;9.100;2023-06-01T01:39:36;98848.13;;;18.46;66.21
14120;BME280;7138;49.246;9.100;2023-06-01T01:42:02;98840.31;;;18.45;66.31
14120;BME280;7138;49.246;9.100;2023-06-01T01:44:28;98842.19;;;18.40;66.66
14120;BME280;7138;49.246;9.100;2023-06-01T01:47:04;98844.88;;;18.38;66.59
14120;BME280;7138;49.246;9.100;2023-06-01T01:49:41;98841.50;;;18.35;66.58
14120;BME280;7138;49.246;9.100;2023-06-01T01:52:15;98835.47;;;18.31;67.14
14120;BME280;7138;49.246;9.100;2023-06-01T01:54:43;98837.31;;;18.28;66.87
14120;BME280;7138;49.246;9.100;2023-06-01T01:57:13;98833.00;;;18.27;67.00
14120;BME280;7138;49.246;9.100;2023-06-01T01:59:42;98830.56;;;18.21;67.16
14120;BME280;7138;49.246;9.100;2023-06-01T02:02:09;98824.59;;;18.16;67.34
14120;BME280;7138;49.246;9.100;2023-06-01T02:04:39;98827.28;;;18.14;67.22
14120;BME280;7138;49.246;9.100;2023-06-01T02:07:05;98823.81;;;18.12;67.16
14120;BME280;7138;49.246;9.100;2023-06-01T02:09:31;98827.31;;;18.13;66.98
14120;BME280;7138;49.246;9.100;2023-06-01T02:11:57;98828.16;;;18.13;67.17
14120;BME280;7138;49.246;9.100;2023-06-01T02:14:23;98827.31;;;18.13;66.89
14120;BME280;7138;49.246;9.100;2023-06-01T02:16:48;98823.00;;;18.10;67.05
14120;BME280;7138;49.246;9.100;2023-06-01T02:19:16;98820.47;;;18.09;66.87
14120;BME280;7138;49.246;9.100;2023-06-01T02:21:42;98824.84;;;18.08;66.81
14120;BME280;7138;49.246;9.100;2023-06-01T02:24:08;98821.44;;;18.05;66.62
14120;BME280;7138;49.246;9.100;2023-06-01T02:26:35;98818.00;;;18.02;66.85
14120;BME280;7138;49.246;9.100;2023-06-01T02:29:02;98820.69;;;17.99;67.01
14120;BME280;7138;49.246;9.100;2023-06-01T02:31:28;98820.78;;;17.96;66.97
14120;BME280;7138;49.246;9.100;2023-06-01T02:33:54;98824.34;;;17.94;66.99
14120;BME280;7138;49.246;9.100;2023-06-01T02:36:22;98823.56;;;17.90;67.17
14120;BME280;7138;49.246;9.100;2023-06-01T02:38:49;98821.97;;;17.85;67.09
14120;BME280;7138;49.246;9.100;2023-06-01T02:41:15;98818.56;;;17.83;67.10
14120;BME280;7138;49.246;9.100;2023-06-01T02:43:41;98825.59;;;17.81;67.31
14120;BME280;7138;49.246;9.100;2023-06-01T02:46:07;98805.69;;;17.75;67.59
14120;BME280;7138;49.246;9.100;2023-06-01T02:48:32;98815.16;;;17.81;67.10
14120;BME280;7138;49.246;9.100;2023-06-01T02:50:58;98816.91;;;17.79;67.48
14120;BME280;7138;49.246;9.100;2023-06-01T02:53:25;98814.38;;;17.77;67.67
14120;BME280;7138;49.246;9.100;2023-06-01T02:55:53;98810.09;;;17.73;67.83
14120;BME280;7138;49.246;9.100;2023-06-01T02:58:20;98819.69;;;17.74;67.80
14120;BME280;7138;49.246;9.100;2023-06-01T03:00:46;98807.56;;;17.70;68.55
14120;BME280;7138;49.246;9.100;2023-06-01T03:03:12;98812.88;;;17.69;68.68
14120;BME280;7138;49.246;9.100;2023-06-01T03:05:41;98816.41;;;17.66;68.88
14120;BME280;7138;49.246;9.100;2023-06-01T03:08:08;98818.25;;;17.63;69.08
14120;BME280;7138;49.246;9.100;2023-06-01T03:10:35;98816.63;;;17.59;69.25
14120;BME280;7138;49.246;9.100;2023-06-01T03:13:01;98814.94;;;17.56;69.26
14120;BME280;7138;49.246;9.100;2023-06-01T03:15:27;98815.00;;;17.53;69.51
14120;BME280;7138;49.246;9.100;2023-06-01T03:17:53;98814.22;;;17.49;69.20
14120;BME280;7138;49.246;9.100;2023-06-01T03:20:19;98820.41;;;17.45;69.20
14120;BME280;7138;49.246;9.100;2023-06-01T03:22:45;98817.94;;;17.41;69.14
14120;BME280;7138;49.246;9.100;2023-06-01T03:25:12;98827.56;;;17.39;69.33
14120;BME280;7138;49.246;9.100;2023-06-01T03:27:40;98823.34;;;17.33;69.28
14120;BME280;7138;49.246;9.100;2023-06-01T03:30:08;98825.16;;;17.31;69.59
14120;BME280;7138;49.246;9.100;2023-06-01T03:32:36;98822.63;;;17.28;69.38
14120;BME280;7138;49.246;9.100;2023-06-01T03:35:03;98821.81;;;17.26;69.50
14120;BME280;7138;49.246;9.100;2023-06-01T03:37:29;98820.09;;;17.25;69.39
14120;BME280;7138;49.246;9.100;2023-06-01T03:39:55;98823.66;;;17.21;69.78
14120;BME280;7138;49.246;9.100;2023-06-01T03:42:21;98819.34;;;17.20;69.79
14120;BME280;7138;49.246;9.100;2023-06-01T03:44:48;98818.50;;;17.18;69.70
14120;BME280;7138;49.246;9.100;2023-06-01T03:47:14;98823.03;;;17.12;70.32
14120;BME280;7138;49.246;9.100;2023-06-01T03:49:40;98823.97;;;17.09;70.32
14120;BME280;7138;49.246;9.100;2023-06-01T03:52:06;98825.78;;;17.07;70.34
14120;BME280;7138;49.246;9.100;2023-06-01T03:54:32;98829.31;;;17.05;70.71
14120;BME280;7138;49.246;9.100;2023-06-01T03:56:58;98836.31;;;17.04;70.84
14120;BME280;7138;49.246;9.100;2023-06-01T03:59:24;98834.63;;;17.02;70.89
14120;BME280;7138;49.246;9.100;2023-06-01T04:01:51;98832.88;;;17.02;70.90
14120;BME280;7138;49.246;9.100;2023-06-01T04:04:20;98832.03;;;17.00;70.76
14120;BME280;7138;49.246;9.100;2023-06-01T04:06:49;98833.94;;;16.93;71.16
14120;BME280;7138;49.246;9.100;2023-06-01T04:09:15;98834.78;;;16.94;71.48
14120;BME280;7138;49.246;9.100;2023-06-01T04:11:41;98830.50;;;16.93;71.32
14120;BME280;7138;49.246;9.100;2023-06-01T04:14:07;98837.41;;;16.94;71.62
14120;BME280;7138;49.246;9.100;2023-06-01T04:16:33;98830.41;;;16.96;71.36
14120;BME280;7138;49.246;9.100;2023-06-01T04:19:00;98833.84;;;16.98;71.39
14120;BME280;7138;49.246;9.100;2023-06-01T04:21:26;98831.22;;;16.98;71.70
14120;BME280;7138;49.246;9.100;2023-06-01T04:23:52;98833.78;;;17.00;71.79
14120;BME280;7138;49.246;9.100;2023-06-01T04:26:17;98839.84;;;17.02;71.70
14120;BME280;7138;49.246;9.100;2023-06-01T04:28:44;98838.09;;;17.02;71.89
14120;BME280;7138;49.246;9.100;2023-06-01T04:31:11;98844.13;;;17.04;71.46
14120;BME280;7138;49.246;9.100;2023-06-01T04:33:43;98844.94;;;17.06;72.07
14120;BME280;7138;49.246;9.100;2023-06-01T04:36:12;98845.78;;;17.08;71.78
14120;BME280;7138;49.246;9.100;2023-06-01T04:38:40;98852.63;;;17.14;71.73
14120;BME280;7138;49.246;9.100;2023-06-01T04:41:07;98853.50;;;17.13;72.22
14120;BME280;7138;49.246;9.100;2023-06-01T04:43:36;98846.53;;;17.13;72.48
14120;BME280;7138;49.246;9.100;2023-06-01T04:46:04;98853.34;;;17.19;72.28
14120;BME280;7138;49.246;9.100;2023-06-01T04:48:30;98849.72;;;17.24;72.12
14120;BME280;7138;49.246;9.100;2023-06-01T04:50:57;98858.31;;;17.29;72.47
14120;BME280;7138;49.246;9.100;2023-06-01T04:53:26;98863.41;;;17.35;72.43
14120;BME280;7138;49.246;9.100;2023-06-01T04:55:52;98850.19;;;17.40;72.52
14120;BME280;7138;49.246;9.100;2023-06-01T04:58:19;98855.16;;;17.51;72.13
14120;BME280;7138;49.246;9.100;2023-06-01T05:00:45;98846.38;;;17.53;72.16
14120;BME280;7138;49.246;9.100;2023-06-01T05:03:11;98852.09;;;17.69;72.11
14120;BME280;7138;49.246;9.100;2023-06-01T05:05:37;98850.75;;;18.17;72.38
14120;BME280;7138;49.246;9.100;2023-06-01T05:08:03;98854.84;;;18.84;71.24
14120;BME280;7138;49.246;9.100;2023-06-01T05:10:30;98856.31;;;19.72;70.06
14120;BME280;7138;49.246;9.100;2023-06-01T05:12:56;98844.91;;;20.67;68.90
14120;BME280;7138;49.246;9.100;2023-06-01T05:15:22;98855.88;;;21.63;67.19
14120;BME280;7138;49.246;9.100;2023-06-01T05:17:48;98854.81;;;22.65;64.88
14120;BME280;7138;49.246;9.100;2023-06-01T05:20:14;98862.09;;;23.51;63.61
14120;BME280;7138;49.246;9.100;2023-06-01T05:22:40;98864.56;;;24.22;61.28
14120;BME280;7138;49.246;9.100;2023-06-01T05:25:06;98858.31;;;24.87;58.48
14120;BME280;7138;49.246;9.100;2023-06-01T05:27:34;98865.19;;;25.37;57.21
14120;BME280;7138;49.246;9.100;2023-06-01T05:30:00;98864.78;;;25.74;56.71
14120;BME280;7138;49.246;9.100;2023-06-01T05:32:26;98864.97;;;26.29;55.80
14120;BME280;7138;49.246;9.100;2023-06-01T05:34:52;98867.59;;;26.86;55.55
14120;BME280;7138;49.246;9.100;2023-06-01T05:37:18;98869.69;;;27.34;54.38
14120;BME280;7138;49.246;9.100;2023-06-01T05:39:43;98870.91;;;27.82;53.46
14120;BME280;7138;49.246;9.100;2023-06-01T05:42:09;98860.13;;;28.36;52.26
14120;BME280;7138;49.246;9.100;2023-06-01T05:44:36;98862.41;;;28.78;51.51
14120;BME280;7138;49.246;9.100;2023-06-01T05:47:03;98864.97;;;29.03;50.58
14120;BME280;7138;49.246;9.100;2023-06-01T05:49:28;98862.25;;;29.28;51.01
14120;BME280;7138;49.246;9.100;2023-06-01T05:51:57;98861.13;;;29.55;50.89
14120;BME280;7138;49.246;9.100;2023-06-01T05:54:23;98862.22;;;29.76;49.89
14120;BME280;7138;49.246;9.100;2023-06-01T05:56:49;98863.75;;;30.02;50.31
14120;BME280;7138;49.246;9.100;2023-06-01T05:59:15;98866.06;;;30.29;50.31
14120;BME280;7138;49.246;9.100;2023-06-01T06:01:43;98866.00;;;30.64;48.98
14120;BME280;7138;49.246;9.100;2023-06-01T06:04:13;98856.13;;;30.86;48.93
14120;BME280;7138;49.246;9.100;2023-06-01T06:06:39;98861.97;;;31.03;50.06
14120;BME280;7138;49.246;9.100;2023-06-01T06:09:05;98867.28;;;31.46;47.82
14120;BME280;7138;49.246;9.100;2023-06-01T06:11:31;98857.00;;;31.73;48.55
14120;BME280;7138;49.246;9.100;2023-06-01T06:13:57;98863.81;;;31.86;47.50
14120;BME280;7138;49.246;9.100;2023-06-01T06:16:23;98870.19;;;32.06;48.20
14120;BME280;7138;49.246;9.100;2023-06-01T06:18:50;98870.88;;;32.29;48.23
14120;BME280;7138;49.246;9.100;2023-06-01T06:21:16;98861.50;;;32.65;47.55
14120;BME280;7138;49.246;9.100;2023-06-01T06:23:42;98860.16;;;32.89;46.73
14120;BME280;7138;49.246;9.100;2023-06-01T06:26:09;98864.13;;;33.05;45.86
14120;BME280;7138;49.246;9.100;2023-06-01T06:28:34;98855.09;;;32.96;45.85
14120;BME280;7138;49.246;9.100;2023-06-01T06:31:00;98865.94;;;32.55;45.65
14120;BME280;7138;49.246;9.100;2023-06-01T06:33:27;98866.25;;;32.10;46.82
14120;BME280;7138;49.246;9.100;2023-06-01T06:35:54;98859.22;;;31.88;46.79
14120;BME280;7138;49.246;9.100;2023-06-01T06:38:20;98861.31;;;31.53;47.26
14120;BME280;7138;49.246;9.100;2023-06-01T06:40:46;98857.81;;;31.10;47.49
14120;BME280;7138;49.246;9.100;2023-06-01T06:43:12;98858.69;;;30.77;48.25
14120;BME280;7138;49.246;9.100;2023-06-01T06:45:39;98863.81;;;30.58;49.91
14120;BME280;7138;49.246;9.100;2023-06-01T06:48:05;98868.16;;;30.37;49.69
14120;BME280;7138;49.246;9.100;2023-06-01T06:50:31;98871.38;;;30.07;49.64
14120;BME280;7138;49.246;9.100;2023-06-01T06:52:58;98865.31;;;29.70;49.93
14120;BME280;7138;49.246;9.100;2023-06-01T06:55:26;98861.91;;;29.33;49.50
14120;BME280;7138;49.246;9.100;2023-06-01T06:57:52;98828.53;;;28.80;50.91
14120;BME280;7138;49.246;9.100;2023-06-01T07:00:20;98857.41;;;28.73;53.30
14120;BME280;7138;49.246;9.100;2023-06-01T07:02:46;98864.66;;;28.59;52.13
14120;BME280;7138;49.246;9.100;2023-06-01T07:05:12;98866.38;;;28.35;52.63
14120;BME280;7138;49.246;9.100;2023-06-01T07:07:40;98867.97;;;28.12;52.57
14120;BME280;7138;49.246;9.100;2023-06-01T07:10:08;98871.25;;;27.90;55.62
14120;BME280;7138;49.246;9.100;2023-06-01T07:12:34;98874.53;;;27.81;56.20
14120;BME280;7138;49.246;9.100;2023-06-01T07:15:00;98877.00;;;27.84;55.65
14120;BME280;7138;49.246;9.100;2023-06-01T07:17:26;98867.09;;;27.86;56.23
14120;BME280;7138;49.246;9.100;2023-06-01T07:19:52;98873.78;;;27.92;53.80
14120;BME280;7138;49.246;9.100;2023-06-01T07:22:18;98873.56;;;27.82;55.60
14120;BME280;7138;49.246;9.100;2023-06-01T07:24:46;98871.56;;;27.86;53.94
14120;BME280;7138;49.246;9.100;2023-06-01T07:27:13;98872.38;;;27.74;54.62
14120;BME280;7138;49.246;9.100;2023-06-01T07:29:39;98873.03;;;27.77;54.04
14120;BME280;7138;49.246;9.100;2023-06-01T07:32:06;98871.31;;;27.76;57.62
14120;BME280;7138;49.246;9.100;2023-06-01T07:34:32;98870.81;;;27.84;53.98
14120;BME280;7138;49.246;9.100;2023-06-01T07:36:59;98868.16;;;27.84;56.77
14120;BME280;7138;49.246;9.100;2023-06-01T07:39:25;98872.94;;;27.91;55.09
14120;BME280;7138;49.246;9.100;2023-06-01T07:41:51;98874.31;;;27.97;56.27
14120;BME280;7138;49.246;9.100;2023-06-01T07:44:20;98870.13;;;28.07;54.16
14120;BME280;7138;49.246;9.100;2023-06-01T07:46:46;98869.59;;;28.14;54.11
14120;BME280;7138;49.246;9.100;2023-06-01T07:49:12;98867.56;;;28.18;54.40
14120;BME280;7138;49.246;9.100;2023-06-01T07:51:39;98873.72;;;28.18;54.42
14120;BME280;7138;49.246;9.100;2023-06-01T07:54:06;98864.47;;;28.24;54.51
14120;BME280;7138;49.246;9.100;2023-06-01T07:56:32;98859.56;;;28.31;54.68
14120;BME280;7138;49.246;9.100;2023-06-01T07:58:58;98854.78;;;28.36;53.63
14120;BME280;7138;49.246;9.100;2023-06-01T08:01:25;98858.50;;;28.46;52.89
14120;BME280;7138;49.246;9.100;2023-06-01T08:03:51;98852.84;;;28.50;54.39
14120;BME280;7138;49.246;9.100;2023-06-01T08:06:18;98854.44;;;28.65;55.18
14120;BME280;7138;49.246;9.100;2023-06-01T08:08:44;98851.53;;;28.81;53.77
14120;BME280;7138;49.246;9.100;2023-06-01T08:11:11;98843.84;;;28.89;53.20
14120;BME280;7138;49.246;9.100;2023-06-01T08:13:38;98846.00;;;29.08;54.02
14120;BME280;7138;49.246;9.100;2023-06-01T08:16:04;98841.72;;;29.18;52.55
14120;BME280;7138;49.246;9.100;2023-06-01T08:18:31;98843.28;;;29.20;54.11
14120;BME280;7138;49.246;9.100;2023-06-01T08:20:57;98842.00;;;29.26;54.98
14120;BME280;7138;49.246;9.100;2023-06-01T08:23:23;98839.38;;;29.37;51.80
14120;BME280;7138;49.246;9.100;2023-06-01T08:25:49;98838.91;;;29.43;51.63
14120;BME280;7138;49.246;9.100;2023-06-01T08:28:15;98842.69;;;29.52;52.00
14120;BME280;7138;49.246;9.100;2023-06-01T08:30:42;98845.91;;;29.57;51.48
14120;BME280;7138;49.246;9.100;2023-06-01T08:33:07;98840.78;;;29.54;50.35
14120;BME280;7138;49.246;9.100;2023-06-01T08:35:34;98842.47;;;29.55;50.49
14120;BME280;7138;49.246;9.100;2023-06-01T08:38:00;98840.44;;;29.58;51.53
14120;BME280;7138;49.246;9.100;2023-06-01T08:40:26;98842.06;;;29.72;49.53
14120;BME280;7138;49.246;9.100;2023-06-01T08:42:59;98835.50;;;29.65;49.05
14120;BME280;7138;49.246;9.100;2023-06-01T08:45:25;98836.19;;;29.56;52.07
14120;BME280;7138;49.246;9.100;2023-06-01T08:47:55;98832.56;;;29.57;50.64
14120;BME280;7138;49.246;9.100;2023-06-01T08:50:22;98834.47;;;29.55;52.80
14120;BME280;7138;49.246;9.100;2023-06-01T08:52:53;98834.53;;;29.66;50.23
14120;BME280;7138;49.246;9.100;2023-06-01T08:55:22;98829.75;;;29.58;50.80
14120;BME280;7138;49.246;9.100;2023-06-01T08:57:48;98827.47;;;29.54;51.51
14120;BME280;7138;49.246;9.100;2023-06-01T09:00:16;98824.56;;;29.57;53.80
14120;BME280;7138;49.246;9.100;2023-06-01T09:02:43;98827.09;;;29.58;53.16
14120;BME280;7138;49.246;9.100;2023-06-01T09:05:09;98819.97;;;29.70;52.44
14120;BME280;7138;49.246;9.100;2023-06-01T09:07:35;98824.44;;;29.82;52.31
14120;BME280;7138;49.246;9.100;2023-06-01T09:10:03;98815.25;;;29.97;51.89
14120;BME280;7138;49.246;9.100;2023-06-01T09:12:30;98818.16;;;30.05;49.57
14120;BME280;7138;49.246;9.100;2023-06-01T09:15:11;98823.47;;;30.16;51.56
14120;BME280;7138;49.246;9.100;2023-06-01T09:17:39;98787.34;;;30.01;50.76
14120;BME280;7138;49.246;9.100;2023-06-01T09:20:11;98814.03;;;30.34;51.04
14120;BME280;7138;49.246;9.100;2023-06-01T09:22:42;98817.06;;;30.52;51.03
14120;BME280;7138;49.246;9.100;2023-06-01T09:25:11;98815.47;;;30.72;50.74
14120;BME280;7138;49.246;9.100;2023-06-01T09:27:46;98810.72;;;30.86;49.02
14120;BME280;7138;49.246;9.100;2023-06-01T09:30:13;98809.88;;;30.97;49.82
14120;BME280;7138;49.246;9.100;2023-06-01T09:32:39;98818.25;;;31.04;51.38
14120;BME280;7138;49.246;9.100;2023-06-01T09:35:07;98815.31;;;31.07;49.90
14120;BME280;7138;49.246;9.100;2023-06-01T09:37:33;98811.28;;;31.12;47.79
14120;BME280;7138;49.246;9.100;2023-06-01T09:40:00;98803.78;;;31.06;47.63
14120;BME280;7138;49.246;9.100;2023-06-01T09:42:34;98809.22;;;31.05;48.81
14120;BME280;7138;49.246;9.100;2023-06-01T09:45:15;98812.75;;;31.05;47.96
14120;BME280;7138;49.246;9.100;2023-06-01T09:47:42;98815.31;;;31.07;49.85
14120;BME280;7138;49.246;9.100;2023-06-01T09:50:09;98795.88;;;31.05;50.30
14120;BME280;7138;49.246;9.100;2023-06-01T09:52:36;98810.78;;;31.18;48.33
14120;BME280;7138;49.246;9.100;2023-06-01T09:55:06;98807.09;;;31.19;48.58
14120;BME280;7138;49.246;9.100;2023-06-01T09:57:34;98804.69;;;31.16;48.47
14120;BME280;7138;49.246;9.100;2023-06-01T10:00:02;98797.16;;;31.21;48.30
14120;BME280;7138;49.246;9.100;2023-06-01T10:02:34;98792.25;;;31.26;51.00
14120;BME280;7138;49.246;9.100;2023-06-01T10:05:01;98794.63;;;31.40;50.26
14120;BME280;7138;49.246;9.100;2023-06-01T10:07:31;98794.34;;;31.55;51.10
14120;BME280;7138;49.246;9.100;2023-06-01T10:10:00;98802.31;;;31.66;48.31
14120;BME280;7138;49.246;9.100;2023-06-01T10:12:31;98797.28;;;31.72;48.55
14120;BME280;7138;49.246;9.100;2023-06-01T10:14:59;98792.00;;;31.82;47.42
14120;BME280;7138;49.246;9.100;2023-06-01T10:17:26;98784.50;;;31.76;47.08
14120;BME280;7138;49.246;9.100;2023-06-01T10:19:53;98784.09;;;31.80;49.23
14120;BME280;7138;49.246;9.100;2023-06-01T10:22:22;98781.47;;;31.90;47.81
14120;BME280;7138;49.246;9.100;2023-06-01T10:24:48;98781.91;;;31.95;47.02
14120;BME280;7138;49.246;9.100;2023-06-01T10:27:22;98776.56;;;31.95;46.18
14120;BME280;7138;49.246;9.100;2023-06-01T10:29:51;98774.03;;;31.93;48.50
14120;BME280;7138;49.246;9.100;2023-06-01T10:32:43;98773.28;;;31.82;45.36
14120;BME280;7138;49.246;9.100;2023-06-01T10:38:26;98772.84;;;31.45;48.66
14120;BME280;7138;49.246;9.100;2023-06-01T10:40:52;98777.44;;;31.54;47.46
14120;BME280;7138;49.246;9.100;2023-06-01T10:43:41;98771.59;;;31.60;46.35
14120;BME280;7138;49.246;9.100;2023-06-01T10:46:36;98769.88;;;31.59;48.95
14120;BME280;7138;49.246;9.100;2023-06-01T10:49:04;98769.94;;;31.69;46.73
14120;BME280;7138;49.246;9.100;2023-06-01T10:51:31;98753.25;;;31.76;46.07
14120;BME280;7138;49.246;9.100;2023-06-01T10:54:28;98751.13;;;31.80;45.54
14120;BME280;7138;49.246;9.100;2023-06-01T10:57:26;98759.91;;;31.61;45.26
14120;BME280;7138;49.246;9.100;2023-06-01T11:00:15;98760.75;;;31.62;46.50
14120;BME280;7138;49.246;9.100;2023-06-01T11:02:51;98762.00;;;31.58;44.47
14120;BME280;7138;49.246;9.100;2023-06-01T11:05:49;98744.13;;;31.58;46.10
14120;BME280;7138;49.246;9.100;2023-06-01T11:08:50;98751.31;;;31.58;44.91
14120;BME280;7138;49.246;9.100;2023-06-01T11:11:16;98742.81;;;31.53;43.80
14120;BME280;7138;49.246;9.100;2023-06-01T11:13:44;98744.69;;;31.62;43.87
14120;BME280;7138;49.246;9.100;2023-06-01T11:16:31;98738.09;;;31.66;43.28
14120;BME280;7138;49.246;9.100;2023-06-01T11:18:59;98733.44;;;31.58;44.29
14120;BME280;7138;49.246;9.100;2023-06-01T11:21:30;98742.81;;;31.53;42.77
14120;BME280;7138;49.246;9.100;2023-06-01T11:23:58;98736.91;;;31.49;44.63
14120;BME280;7138;49.246;9.100;2023-06-01T11:26:30;98738.31;;;31.53;43.57
14120;BME280;7138;49.246;9.100;2023-06-01T11:29:14;98725.53;;;31.57;45.30
14120;BME280;7138;49.246;9.100;2023-06-01T11:31:46;98731.31;;;31.62;44.83
14120;BME280;7138;49.246;9.100;2023-06-01T11:34:14;98723.34;;;31.71;47.71
14120;BME280;7138;49.246;9.100;2023-06-01T11:36:47;98725.81;;;31.84;46.78
14120;BME280;7138;49.246;9.100;2023-06-01T11:39:23;98724.16;;;31.92;46.34
14120;BME280;7138;49.246;9.100;2023-06-01T11:42:04;98720.81;;;32.00;44.69
14120;BME280;7138;49.246;9.100;2023-06-01T11:44:31;98714.75;;;31.98;44.85
14120;BME280;7138;49.246;9.100;2023-06-01T11:46:57;98727.31;;;31.98;46.30
14120;BME280;7138;49.246;9.100;2023-06-01T11:49:25;98724.69;;;31.86;43.67
14120;BME280;7138;49.246;9.100;2023-06-01T11:51:53;98726.94;;;31.81;43.60
14120;BME280;7138;49.246;9.100;2023-06-01T11:54:26;98715.31;;;31.71;43.49
14120;BME280;7138;49.246;9.100;2023-06-01T11:56:55;98714.31;;;31.63;44.16
14120;BME280;7138;49.246;9.100;2023-06-01T11:59:21;98716.53;;;31.58;42.70
14120;BME280;7138;49.246;9.100;2023-06-01T12:01:49;98711.84;;;31.50;42.07
14120;BME280;7138;49.246;9.100;2023-06-01T12:04:17;98709.81;;;31.42;41.69
14120;BME280;7138;49.246;9.100;2023-06-01T12:06:44;98714.94;;;31.34;42.44
14120;BME280;7138;49.246;9.100;2023-06-01T12:09:13;98710.09;;;31.28;41.09
14120;BME280;7138;49.246;9.100;2023-06-01T12:11:41;98710.50;;;31.24;43.46
14120;BME280;7138;49.246;9.100;2023-06-01T12:14:10;98709.41;;;31.26;46.74
14120;BME280;7138;49.246;9.100;2023-06-01T12:16:53;98704.38;;;31.33;43.74
14120;BME280;7138;49.246;9.100;2023-06-01T12:19:19;98695.25;;;31.35;46.18
14120;BME280;7138;49.246;9.100;2023-06-01T12:21:48;98693.59;;;31.44;43.67
14120;BME280;7138;49.246;9.100;2023-06-01T12:24:17;98685.25;;;31.49;43.79
14120;BME280;7138;49.246;9.100;2023-06-01T12:26:43;98687.03;;;31.48;44.02
14120;BME280;7138;49.246;9.100;2023-06-01T12:29:09;98684.34;;;31.48;44.89
14120;BME280;7138;49.246;9.100;2023-06-01T12:31:35;98675.94;;;31.53;43.77
14120;BME280;7138;49.246;9.100;2023-06-01T12:34:00;98677.38;;;31.57;43.67
14120;BME280;7138;49.246;9.100;2023-06-01T12:36:32;98679.22;;;31.56;43.48
14120;BME280;7138;49.246;9.100;2023-06-01T12:38:59;98670.88;;;31.50;44.29
14120;BME280;7138;49.246;9.100;2023-06-01T12:41:27;98665.00;;;31.35;44.68
14120;BME280;7138;49.246;9.100;2023-06-01T12:43:54;98664.34;;;31.42;47.06
14120;BME280;7138;49.246;9.100;2023-06-01T12:46:22;98666.88;;;31.44;45.33
14120;BME280;7138;49.246;9.100;2023-06-01T12:48:49;98669.69;;;31.42;45.74
14120;BME280;7138;49.246;9.100;2023-06-01T12:51:16;98661.53;;;31.44;44.28
14120;BME280;7138;49.246;9.100;2023-06-01T12:53:42;98659.69;;;31.45;44.70
14120;BME280;7138;49.246;9.100;2023-06-01T12:56:09;98647.88;;;31.47;44.20
14120;BME280;7138;49.246;9.100;2023-06-01T12:58:36;98640.22;;;31.54;44.04
14120;BME280;7138;49.246;9.100;2023-06-01T13:01:02;98647.97;;;31.57;44.62
14120;BME280;7138;49.246;9.100;2023-06-01T13:03:28;98645.56;;;31.54;44.48
14120;BME280;7138;49.246;9.100;2023-06-01T13:05:55;98651.31;;;31.49;44.31
14120;BME280;7138;49.246;9.100;2023-06-01T13:08:21;98647.81;;;31.49;44.61
14120;BME280;7138;49.246;9.100;2023-06-01T13:10:48;98642.88;;;31.54;44.61
14120;BME280;7138;49.246;9.100;2023-06-01T13:13:14;98640.13;;;31.65;46.00
14120;BME280;7138;49.246;9.100;2023-06-01T13:15:45;98630.03;;;31.78;46.67
14120;BME280;7138;49.246;9.100;2023-06-01T13:18:11;98635.81;;;31.83;43.54
14120;BME280;7138;49.246;9.100;2023-06-01T13:20:38;98636.56;;;31.85;43.17